LEIBLMML

Guest
Details From LEIB - Ibiza
To LMML - La Valette Luqa
Flight Number -
Tags decoded
Created
Modified
Stats Distance 651 nm / 1,205 km
Max Altitude 0 ft / 0 m
Waypoints 2
Social Downloads 0
Likes 0
Share VATSIM

Download

Looking for another format? Having issues loading an existing format? Contact us
Advertisement - Login to hide

Notes

Requested: LEIB LMML

Route

LEIB LMML

ID Type Via Altitude Latitude Longitude Leg Dist Tot Dist Heading (true) Name
O LEIB APT - 0 ft / 0 m 38.87287˚ 1.37304˚ - 0 nm - Ibiza
O LMML APT - 0 ft / 0 m 35.84948˚ 14.48184˚ 650 nm 650 nm 102° / 110° La Valette Luqa

Altitude Profile

Advertisement - Login to hide

Weather


0- 5 10 15 20 25 30 35+ Temperature / ° C

Clouds and Precipitation
Forecast for 2018-05-27 06:00 UTC. Updated 3 hours ago

Ground ~20,000 ft ~40,000 ft Winds

LEIB

Details ICAO LEIB (IBZ)
Name Ibiza
Region Spain
Timezone Europe/Madrid (UTC+2.0)
Stats Elevation 20 ft / 6 m (AMSL)
Location 38.872871° 1.373045°
Runways 1
Magnetic Variation 0.711° E

METAR

LEIB 270800Z 26007KT 230V300 9999 SCT019 BKN021 22/16 Q1012 NOSIG

Decode

TAF

TAF LEIB 270200Z 2703/2803 VRB03KT 9999 SCT020 TX24/2712Z TN17/2706Z PROB40 TEMPO 2703/2710 BKN010 BECMG 2708/2710 24012KT TEMPO 2712/2717 24013G23KT TEMPO 2719/2721 17012KT

Decode

Departure Runways

ID Width Length Bearing (true) Bearing (mag) Surface Threshold Offset Overrun Length
06 148 ft / 45 m 9,153 ft / 2,790 m 61.85° 61.14° Asphalt 0 ft / 0 m 213 ft / 65 m
24 148 ft / 45 m 9,153 ft / 2,790 m 241.86° 241.15° Asphalt 0 ft / 0 m 197 ft / 60 m

LMML

Details ICAO LMML (MLA)
Name La Valette Luqa
Region Malta
Timezone Europe/Malta (UTC+2.0)
Stats Elevation 300 ft / 91 m (AMSL)
Location 35.849477° 14.481836°
Runways 2
Magnetic Variation 3.063° E

METAR

LMML 270745Z 09003KT CAVOK 26/13 Q1019 NOSIG

Decode

TAF

Not found

Destination Runways

ID Width Length Bearing (true) Bearing (mag) Surface Threshold Offset Overrun Length
14 197 ft / 60 m 11,635 ft / 3,546 m 134.83° 131.77° Asphalt 0 ft / 0 m 420 ft / 128 m
24 148 ft / 45 m 7,789 ft / 2,374 m 234.37° 231.31° Asphalt 410 ft / 125 m 0 ft / 0 m
32 197 ft / 60 m 11,635 ft / 3,546 m 314.85° 311.79° Asphalt 817 ft / 249 m 0 ft / 0 m
6 148 ft / 45 m 7,789 ft / 2,374 m 54.35° 51.29° Asphalt 400 ft / 122 m 0 ft / 0 m

Approach Navaids

Runway Type Ident Frequency Range Bearing (true) Bearing (mag) Slope Elevation
14 Localiser LQ 109.70 MHz 18 nm / 33 km 134.95° 131.89° - 230 ft / 70 m (AMSL)
14 Glidescope LQ 109.70 MHz 10 nm / 19 km 134.84° 131.78° 2.85° 256 ft / 78 m (AMSL)
32 Localiser LM 110.50 MHz 18 nm / 33 km 314.79° 311.73° - 256 ft / 78 m (AMSL)
32 Glidescope LM 110.50 MHz 10 nm / 19 km 314.84° 311.78° 2.85° 230 ft / 70 m (AMSL)

Popular Alternatives